Terminal Aerodrome Forecast
Issued by NWS Tampa Bay Area, FL

Home | Current Version | Previous Version | Text Only | Print | Product List | Glossary On
Versions: 1 2 3 4 5 6 7 8 9 10 11 12 13 14 15
000
FTUS42 KTBW 260536
TAFFMY
TAF
KFMY 260536Z 2606/2706 09006KT P6SM FEW050 SCT250
     FM260900 10005KT P6SM SCT250
     FM262000 12011KT P6SM VCTS SCT040CB BKN250
     FM270200 07006KT P6SM FEW035 SCT250=

USA.gov is the U.S. government's official web portal to all federal, state and local government web resources and services.